Flight Track Log - Related Links

Times and Time Zones

All times are in EDT time to prevent confusion due to time zone crossing. See the BOE5 flight status page for this flight to view local times or setup timezone preferences in your user account.

Time Position Orientation Groundspeed Altitude Reporting Facility
EDT Latitude Longitude Course Direction KTS MPH feet Rate Location/Type
Mon 01:45:21 PM 47.5111 -122.2850 142° Southeast 206 237 1,500  Level Seattle Center
Mon 01:46:22 PM 47.4539 -122.2181 142° Southeast 271 312 5,700 4,017 Climbing Seattle Center
Mon 01:47:22 PM 47.3869 -122.2256 184° South 273 314 9,600 3,457 Climbing Seattle Center
Mon 01:47:54 PM 47.3942 -122.2825 281° West 269 310 11,000 1,742 Climbing Seattle Center
Mon 01:48:55 PM 47.3997 -122.4200 273° West 350 403 12,300 1,918 Climbing Seattle Center
Mon 01:49:56 PM 47.3936 -122.5664 267° West 356 410 14,900 1,328 Climbing Seattle Center
Mon 01:50:57 PM 47.3564 -122.6958 247° West 343 395 15,000 49 Climbing Seattle Center
Mon 01:51:58 PM 47.3183 -122.8250 247° West 343 395 15,000  Level Seattle Center
Mon 01:52:59 PM 47.2775 -122.9644 247° West 346 398 15,000  Level Seattle Center
Mon 01:54:00 PM 47.2397 -123.0964 247° West 349 402 15,000  Level Seattle Center
Mon 01:55:01 PM 47.2008 -123.2261 246° West 349 402 15,000  Level Seattle Center
Mon 01:56:02 PM 47.1625 -123.3553 246° West 346 398 15,000  Level Seattle Center
Mon 01:57:03 PM 47.1275 -123.4867 249° West 345 397 15,000  Level Seattle Center
Mon 01:58:04 PM 47.0958 -123.6025 248° West 344 396 15,000  Level Seattle Center
Mon 01:59:05 PM 47.0611 -123.7308 248° West 340 391 15,000  Level Seattle Center
Mon 02:00:06 PM 47.0186 -123.8864 248° West 342 394 15,000  Level Seattle Center
Mon 02:01:07 PM 47.0069 -124.0061 262° West 342 394 15,000  Level Seattle Center
Mon 02:02:08 PM 47.0764 -124.0900 321° Northwest 342 394 15,000  Level Seattle Center
Mon 02:03:09 PM 47.1633 -124.0261 27° Northeast 373 429 15,000  Level Seattle Center
Mon 02:04:10 PM 47.2350 -123.8875 53° Northeast 385 443 15,000  Level Seattle Center
Mon 02:05:11 PM 47.3075 -123.7697 48° Northeast 387 445 15,000  Level Seattle Center
Mon 02:06:12 PM 47.3775 -123.6475 50° Northeast 389 448 15,000  Level Seattle Center
Mon 02:07:13 PM 47.4619 -123.5458 39° Northeast 396 456 15,000  Level Seattle Center
Mon 02:08:14 PM 47.5542 -123.4633 31° Northeast 389 448 15,000 -443 Level Seattle Center
Mon 02:09:15 PM 47.6489 -123.3806 30° Northeast 394 453 14,100 -1,230 Descending Seattle Center
Mon 02:10:16 PM 47.7417 -123.2981 31° Northeast 390 449 12,500 -1,565 Descending Seattle Center
Mon 02:11:10 PM 47.8403 -123.2108 31° Northeast 396 456 11,100 -1,377 Descending Seattle Center
Mon 02:11:17 PM 47.8372 -123.2128 203° Southwest 397 457 11,100 -1,224 Level Seattle Center
Mon 02:11:59 PM 47.9164 -123.1417 31° Northeast 387 445 10,100 -984 Descending Seattle Center
Mon 02:12:18 PM 47.9294 -123.1308 29° Northeast 389 448 10,100  Level Seattle Center
Mon 02:12:59 PM 47.9981 -123.0694 31° Northeast 336 387 10,100  Level Seattle Center
Mon 02:13:19 PM 48.0267 -123.0439 31° Northeast 340 391 10,100 -590 Level Seattle Center
Mon 02:14:00 PM 48.0708 -123.0050 30° Northeast 292 336 9,500 -984 Descending Seattle Center
Mon 02:14:20 PM 48.0972 -122.9794 33° Northeast 303 349 9,100 -1,279 Descending Seattle Center
Mon 02:15:01 PM 48.1328 -122.9333 41° Northeast 292 336 8,200 -1,364 Descending Seattle Center
Mon 02:15:04 PM 48.1361 -122.9239 62° Northeast 286 329 8,100 -2,100 Descending Seattle Center
Mon 02:15:21 PM 48.1417 -122.8875 77° East 282 325 7,500 -1,857 Descending Seattle Center
Mon 02:15:46 PM 48.1411 -122.8353 91° East 286 329 6,800 -1,475 Descending Seattle Center
Mon 02:16:22 PM 48.1436 -122.7683 87° East 285 328 6,000 -1,309 Descending Seattle Center
Mon 02:16:41 PM 48.1442 -122.7308 89° East 278 320 5,600 -984 Descending Seattle Center
Mon 02:17:23 PM 48.1442 -122.6553 90° East 274 315 5,000 -492 Descending Seattle Center
Mon 02:17:42 PM 48.1453 -122.6175 87° East 269 310 5,100  Climbing Seattle Center
Mon 02:18:25 PM 48.1475 -122.5478 87° East 262 302 5,000 -295 Descending Seattle Center
Mon 02:18:43 PM 48.1478 -122.5200 89° East 231 266 4,800 -787 Descending Seattle Center
Mon 02:19:26 PM 48.1492 -122.4539 88° East 233 268 4,200 -716 Descending Seattle Center
Mon 02:19:50 PM 48.1478 -122.4136 93° East 217 250 4,000 -787 Descending Seattle Center
Mon 02:20:27 PM 48.1497 -122.3647 87° East 218 251 3,400 -800 Descending Seattle Center
Mon 02:20:50 PM 48.1503 -122.3258 89° East 211 243 3,200 -393 Descending Seattle Center
Mon 02:21:28 PM 48.1283 -122.2928 135° Southeast 208 239 3,000 -109 Descending Seattle Center
Mon 02:21:45 PM 48.1081 -122.2897 174° South 181 208 3,100  Climbing Seattle Center
Mon 02:22:29 PM 48.0772 -122.2903 181° South 180 207 3,000  Descending Seattle Center
Mon 02:22:52 PM 48.0519 -122.2881 177° South 179 206 3,100 -295 Climbing Seattle Center
Mon 02:23:30 PM 48.0292 -122.2881 180° South 174 200 2,700 -689 Descending Seattle Center
Mon 02:23:53 PM 48.0072 -122.2864 177° South 162 186 2,400 -787 Descending Seattle Center
Mon 02:24:31 PM 47.9861 -122.2869 181° South 154 177 1,900 -885 Descending Seattle Center
Mon 02:24:54 PM 47.9650 -122.2867 179° South 141 162 1,500 -787 Descending Seattle Center
Mon 02:25:32 PM 47.9478 -122.2867 180° South 139 160 1,100 -420 Descending Seattle Center
Mon 02:26:34 PM 47.9044 -122.2861 180° South 137 158 800 -290 Descending Seattle Center
Mon 02:28:00 PM 47.9070 -122.2816 180° South  Level Estimated

Login

Don't have an account? Register now (free) for customized features, flight alerts, and more!